createdAt,value
2022-10-31T00:02:02.177Z,38.57
2022-10-31T00:04:05.031Z,31.70
2022-10-31T00:06:07.180Z,38.30
2022-10-31T00:08:09.130Z,35.67
2022-10-31T00:10:11.386Z,28.90
2022-10-31T00:12:13.215Z,39.42
2022-10-31T00:14:15.346Z,33.53
2022-10-31T00:16:19.989Z,35.92
2022-10-31T00:18:21.831Z,39.65
2022-10-31T00:20:23.687Z,35.20
2022-10-31T00:22:26.118Z,34.80
2022-10-31T00:24:27.915Z,36.70
2022-10-31T00:26:31.268Z,24.65
2022-10-31T00:28:34.412Z,37.95
2022-10-31T00:30:36.234Z,36.58
2022-10-31T00:32:38.027Z,35.67
2022-10-31T00:34:40.129Z,36.77
2022-10-31T00:36:42.027Z,38.83
2022-10-31T00:38:45.111Z,37.70
2022-10-31T00:40:47.340Z,32.63
2022-10-31T00:42:49.203Z,34.47
2022-10-31T00:44:51.070Z,33.15
2022-10-31T00:46:53.226Z,34.13
2022-10-31T00:48:55.080Z,33.45
2022-10-31T00:50:57.751Z,38.88
2022-10-31T00:55:01.718Z,51.53
2022-10-31T00:57:04.104Z,38.92
2022-10-31T00:59:06.265Z,38.15
2022-10-31T01:01:08.333Z,38.53
2022-10-31T01:03:10.281Z,39.40
2022-10-31T01:05:12.827Z,40.05
2022-10-31T01:07:15.162Z,34.80
2022-10-31T01:09:17.131Z,36.55
2022-10-31T01:11:22.188Z,34.22
2022-10-31T01:13:24.286Z,34.78
2022-10-31T01:15:26.168Z,31.50
2022-10-31T01:17:28.327Z,32.75
2022-10-31T01:19:30.173Z,36.47
2022-10-31T01:21:32.030Z,37.80
2022-10-31T01:23:34.988Z,42.90
2022-10-31T01:25:36.794Z,33.00
2022-10-31T01:27:38.783Z,29.88
2022-10-31T01:29:40.880Z,34.58
2022-10-31T01:31:42.673Z,33.05
2022-10-31T01:33:44.728Z,34.88
2022-10-31T01:35:46.861Z,38.63
2022-10-31T01:37:48.659Z,37.38
2022-10-31T01:39:50.539Z,34.78
2022-10-31T01:41:54.360Z,37.63
2022-10-31T01:43:59.131Z,38.50
2022-10-31T01:46:01.166Z,32.78
2022-10-31T01:48:03.550Z,36.92
2022-10-31T01:50:12.455Z,35.80
2022-10-31T01:52:22.294Z,39.00
2022-10-31T01:54:30.395Z,33.92
2022-10-31T01:56:34.635Z,34.75
2022-10-31T01:58:36.939Z,37.70
2022-10-31T02:00:40.657Z,38.78
2022-10-31T02:02:43.864Z,36.85
2022-10-31T02:04:48.534Z,42.78
2022-10-31T02:06:59.601Z,41.85
2022-10-31T02:09:03.446Z,44.80
2022-10-31T02:11:06.352Z,47.08
2022-10-31T02:13:09.609Z,47.22
2022-10-31T02:17:14.045Z,46.90
2022-10-31T02:19:44.957Z,46.45
2022-10-31T02:22:05.178Z,49.22
2022-10-31T02:25:02.715Z,45.70
2022-10-31T02:27:10.392Z,44.40
2022-10-31T02:29:15.137Z,43.53
2022-10-31T02:31:29.926Z,41.00
2022-10-31T02:33:41.297Z,45.65
2022-10-31T02:35:50.814Z,44.53
2022-10-31T02:38:03.793Z,42.97
2022-10-31T02:42:31.571Z,45.10
2022-10-31T02:44:56.150Z,46.45
2022-10-31T02:47:09.960Z,41.95
2022-10-31T02:49:51.530Z,40.88
2022-10-31T02:51:53.526Z,44.47
2022-10-31T02:53:55.694Z,47.13
2022-10-31T02:56:01.303Z,42.03
2022-10-31T02:58:12.217Z,40.63
2022-10-31T03:00:14.757Z,43.80
2022-10-31T03:02:31.573Z,53.78
2022-10-31T03:04:53.780Z,48.10
2022-10-31T03:07:44.428Z,45.58
2022-10-31T03:10:05.555Z,51.92
2022-10-31T03:12:43.142Z,47.05
2022-10-31T03:15:20.655Z,46.60
2022-10-31T03:17:29.429Z,49.63
2022-10-31T03:19:38.783Z,45.47
2022-10-31T03:21:47.463Z,49.53
2022-10-31T03:23:52.596Z,46.88
2022-10-31T03:25:55.903Z,42.17
2022-10-31T03:28:01.000Z,44.20
2022-10-31T03:30:06.599Z,45.53
2022-10-31T03:32:20.836Z,40.85
2022-10-31T03:34:24.368Z,45.55
2022-10-31T03:36:28.353Z,43.78
2022-10-31T03:38:30.826Z,46.85
2022-10-31T03:40:36.156Z,45.08
2022-10-31T03:42:42.359Z,41.50
2022-10-31T03:44:51.089Z,40.72
2022-10-31T03:46:52.998Z,43.55
2022-10-31T03:48:55.452Z,44.38
2022-10-31T03:51:10.483Z,42.90
2022-10-31T03:53:21.721Z,42.70
2022-10-31T03:55:40.329Z,41.85
2022-10-31T03:57:49.071Z,41.83
2022-10-31T04:00:04.713Z,37.88
2022-10-31T04:02:11.799Z,38.95
2022-10-31T04:04:15.181Z,41.75
2022-10-31T04:06:20.092Z,40.35
2022-10-31T04:08:27.474Z,43.05
2022-10-31T04:10:32.945Z,42.55
2022-10-31T04:12:37.066Z,43.95
2022-10-31T04:14:41.475Z,42.75
2022-10-31T04:16:44.967Z,45.65
2022-10-31T04:18:46.954Z,42.80
2022-10-31T04:20:51.888Z,40.17
2022-10-31T04:22:53.811Z,48.60
2022-10-31T04:24:55.590Z,48.38
2022-10-31T04:26:57.877Z,46.83
2022-10-31T04:28:59.677Z,46.25
2022-10-31T04:31:01.976Z,45.05
2022-10-31T04:33:04.150Z,46.80
2022-10-31T04:35:06.484Z,49.05
2022-10-31T04:37:08.326Z,45.65
2022-10-31T04:39:10.692Z,46.80
2022-10-31T04:41:12.481Z,48.20
2022-10-31T04:43:14.485Z,47.33
2022-10-31T04:45:20.107Z,44.58
2022-10-31T04:47:23.608Z,46.35
2022-10-31T04:49:25.392Z,42.70
2022-10-31T04:51:27.583Z,43.60
2022-10-31T04:53:30.170Z,44.75
2022-10-31T04:55:32.479Z,43.03
2022-10-31T04:57:42.748Z,42.55
2022-10-31T04:59:44.650Z,44.67
2022-10-31T05:01:46.539Z,42.38
2022-10-31T05:03:48.852Z,40.45
2022-10-31T05:05:50.833Z,40.03
2022-10-31T05:07:53.390Z,38.88
2022-10-31T05:09:55.492Z,45.30
2022-10-31T05:11:57.324Z,41.15
2022-10-31T05:13:59.169Z,45.95
2022-10-31T05:16:01.254Z,40.53
2022-10-31T05:18:03.566Z,41.05
2022-10-31T05:20:06.251Z,41.83
2022-10-31T05:22:08.458Z,40.85
2022-10-31T05:24:10.421Z,40.03
2022-10-31T05:26:12.316Z,45.00
2022-10-31T05:28:14.419Z,46.05
2022-10-31T05:30:19.704Z,49.85
2022-10-31T05:32:21.559Z,51.67
2022-10-31T05:34:23.679Z,55.05
2022-10-31T05:36:25.493Z,57.90
2022-10-31T05:38:27.422Z,48.40
2022-10-31T05:40:30.059Z,51.05
2022-10-31T05:42:31.958Z,51.25
2022-10-31T05:44:33.836Z,48.65
2022-10-31T05:46:35.981Z,52.97
2022-10-31T05:48:37.822Z,49.63
2022-10-31T05:50:39.642Z,46.60
2022-10-31T05:52:41.781Z,54.58
2022-10-31T05:54:43.689Z,60.95
2022-10-31T05:56:45.563Z,58.40
2022-10-31T05:58:47.728Z,60.63
2022-10-31T06:00:49.599Z,65.32
2022-10-31T06:02:59.996Z,72.00
2022-10-31T06:05:03.442Z,75.28
2022-10-31T06:07:05.356Z,69.97
2022-10-31T06:09:07.242Z,73.93
2022-10-31T06:11:09.383Z,76.03
2022-10-31T06:13:11.629Z,70.65
2022-10-31T06:15:13.820Z,71.68
2022-10-31T06:17:16.252Z,74.43
2022-10-31T06:19:18.109Z,61.17
2022-10-31T06:21:20.327Z,62.78
2022-10-31T06:23:22.471Z,59.73
2022-10-31T06:25:24.855Z,56.33
2022-10-31T06:27:27.555Z,52.83
2022-10-31T06:31:31.418Z,56.38
2022-10-31T06:33:35.076Z,47.83
2022-10-31T06:35:37.189Z,44.42
2022-10-31T06:37:39.134Z,46.75
2022-10-31T06:39:41.178Z,49.83
2022-10-31T06:41:43.330Z,43.67
2022-10-31T06:43:48.330Z,42.17
2022-10-31T06:45:50.321Z,42.05
2022-10-31T06:48:15.408Z,43.78
2022-10-31T06:50:16.332Z,38.50
2022-10-31T06:52:18.296Z,43.57
2022-10-31T06:54:20.416Z,43.15
2022-10-31T06:56:22.457Z,40.53
2022-10-31T06:58:24.532Z,36.08
2022-10-31T07:00:29.482Z,37.53
2022-10-31T07:02:31.374Z,33.78
2022-10-31T07:04:33.522Z,30.80
2022-10-31T07:06:35.623Z,30.67
2022-10-31T07:08:37.510Z,30.95
2022-10-31T07:10:42.020Z,31.57
2022-10-31T07:12:44.253Z,32.58
2022-10-31T07:14:46.235Z,34.53
2022-10-31T07:16:52.116Z,38.47
2022-10-31T07:18:54.240Z,42.90
2022-10-31T07:20:56.155Z,45.07
2022-10-31T07:22:58.606Z,47.80
2022-10-31T07:25:01.018Z,41.75
2022-10-31T07:27:02.900Z,49.70
2022-10-31T07:29:04.902Z,41.93
2022-10-31T07:31:07.356Z,41.92
2022-10-31T07:33:09.575Z,52.33
2022-10-31T07:35:18.089Z,46.28
2022-10-31T07:37:20.285Z,44.13
2022-10-31T07:39:22.148Z,44.33
2022-10-31T07:41:24.457Z,49.42
2022-10-31T07:43:27.184Z,46.33
2022-10-31T07:45:32.360Z,47.35
2022-10-31T07:47:51.736Z,44.10
2022-10-31T07:49:53.951Z,45.03
2022-10-31T07:51:56.278Z,46.80
2022-10-31T07:53:58.261Z,45.60
2022-10-31T07:56:00.514Z,45.05
2022-10-31T07:58:08.330Z,42.60
2022-10-31T08:00:11.237Z,50.90
2022-10-31T08:02:13.430Z,44.08
2022-10-31T08:04:15.310Z,49.17
2022-10-31T08:06:17.148Z,43.57
2022-10-31T08:08:19.311Z,44.53
2022-10-31T08:10:21.962Z,48.00
2022-10-31T08:12:23.866Z,47.50
2022-10-31T08:14:26.026Z,48.78
2022-10-31T08:16:28.382Z,48.15
2022-10-31T08:18:30.870Z,46.83
2022-10-31T08:22:37.543Z,43.00
2022-10-31T08:24:41.662Z,45.80
2022-10-31T08:26:43.969Z,44.47
2022-10-31T08:28:46.070Z,39.92
2022-10-31T08:30:48.440Z,42.03
2022-10-31T08:35:21.934Z,43.90
2022-10-31T08:37:25.230Z,39.27
2022-10-31T08:39:27.342Z,43.05
2022-10-31T08:41:29.638Z,41.08
2022-10-31T08:43:31.432Z,39.72
2022-10-31T08:45:35.121Z,43.92
2022-10-31T08:47:36.980Z,38.67
2022-10-31T08:49:39.054Z,37.35
2022-10-31T08:51:41.238Z,42.65
2022-10-31T08:53:43.594Z,43.05
2022-10-31T08:55:46.833Z,40.28
2022-10-31T08:57:49.496Z,36.58
2022-10-31T08:59:51.920Z,32.47
2022-10-31T09:01:53.989Z,31.77
2022-10-31T09:03:57.459Z,38.75
2022-10-31T09:06:01.967Z,40.47
2022-10-31T09:08:14.832Z,39.47
2022-10-31T09:10:18.520Z,48.83
2022-10-31T09:12:20.641Z,35.47
2022-10-31T09:14:22.462Z,37.57
2022-10-31T09:16:24.662Z,31.38
2022-10-31T09:18:29.019Z,35.28
2022-10-31T09:20:32.414Z,42.35
2022-10-31T09:22:35.736Z,45.58
2022-10-31T09:24:37.818Z,40.42
2022-10-31T09:26:39.629Z,38.13
2022-10-31T09:28:41.862Z,41.92
2022-10-31T09:30:43.806Z,42.45
2022-10-31T09:32:45.654Z,39.08
2022-10-31T09:34:49.131Z,34.28
2022-10-31T09:36:54.652Z,34.80
2022-10-31T09:38:56.538Z,37.33
2022-10-31T09:41:20.284Z,39.05
2022-10-31T09:46:15.185Z,33.97
2022-10-31T09:48:43.755Z,34.90
2022-10-31T09:50:50.885Z,37.65
2022-10-31T09:53:04.168Z,37.30
2022-10-31T09:55:20.244Z,38.45
2022-10-31T09:57:34.040Z,35.45
2022-10-31T09:59:40.058Z,38.88
2022-10-31T10:02:25.899Z,38.53
2022-10-31T10:04:46.709Z,40.97
2022-10-31T10:06:52.348Z,34.10
2022-10-31T10:08:54.855Z,39.38
2022-10-31T10:11:17.661Z,41.95
2022-10-31T10:13:41.707Z,35.80
2022-10-31T10:16:04.976Z,36.20
2022-10-31T10:18:37.602Z,40.80
2022-10-31T10:21:05.099Z,39.55
2022-10-31T10:23:47.195Z,40.70
2022-10-31T10:26:00.238Z,40.00
2022-10-31T10:28:13.089Z,40.78
2022-10-31T10:30:21.969Z,42.83
2022-10-31T10:32:31.566Z,44.80
2022-10-31T10:34:40.619Z,40.90
2022-10-31T10:36:47.804Z,45.35
2022-10-31T10:38:54.796Z,42.47
2022-10-31T10:40:58.884Z,47.03
2022-10-31T10:43:32.915Z,40.92
2022-10-31T10:45:53.958Z,46.47
2022-10-31T10:48:11.614Z,46.28
2022-10-31T10:50:13.459Z,47.53
2022-10-31T10:52:50.880Z,45.42
2022-10-31T10:55:16.303Z,48.75
2022-10-31T10:57:37.239Z,48.90
2022-10-31T10:59:39.303Z,49.88
2022-10-31T11:01:42.840Z,45.53
2022-10-31T11:03:44.960Z,48.95
2022-10-31T11:06:02.914Z,49.70
2022-10-31T11:08:07.002Z,42.47
2022-10-31T11:10:17.610Z,41.78
2022-10-31T11:12:32.624Z,45.25
2022-10-31T11:14:43.635Z,43.67
2022-10-31T11:16:48.924Z,40.22
2022-10-31T11:18:51.028Z,43.75
2022-10-31T11:23:27.152Z,43.15
2022-10-31T11:25:29.103Z,50.58
2022-10-31T11:27:31.084Z,42.78
2022-10-31T11:29:33.362Z,48.78
2022-10-31T11:31:36.561Z,46.97
2022-10-31T11:35:41.382Z,47.38
2022-10-31T11:37:45.535Z,44.15
2022-10-31T11:39:57.202Z,45.80
2022-10-31T11:42:08.512Z,41.72
2022-10-31T11:44:21.458Z,46.65
2022-10-31T11:46:26.807Z,42.75
2022-10-31T11:48:29.185Z,45.00
2022-10-31T11:50:41.231Z,45.30
2022-10-31T11:52:43.275Z,45.65
2022-10-31T11:54:57.079Z,43.42
2022-10-31T11:56:59.203Z,45.63
2022-10-31T11:59:05.293Z,41.57
2022-10-31T12:01:31.417Z,45.28
2022-10-31T12:03:43.578Z,42.63
2022-10-31T12:05:49.679Z,43.85
2022-10-31T12:07:53.466Z,43.05
2022-10-31T12:09:56.174Z,45.63
2022-10-31T12:12:36.671Z,40.38
2022-10-31T12:15:09.673Z,42.92
2022-10-31T12:17:23.557Z,44.47
2022-10-31T12:19:51.255Z,47.15
2022-10-31T12:22:35.945Z,43.63
2022-10-31T12:25:08.924Z,41.95
2022-10-31T12:27:22.430Z,44.70
2022-10-31T12:32:05.099Z,41.60
2022-10-31T12:34:26.018Z,40.53
2022-10-31T12:36:30.941Z,42.25
2022-10-31T12:39:14.943Z,45.67
2022-10-31T12:41:49.657Z,46.35
2022-10-31T12:43:58.696Z,42.97
2022-10-31T12:46:02.972Z,41.67
2022-10-31T12:48:29.935Z,41.75
2022-10-31T12:50:56.374Z,43.33
2022-10-31T12:53:13.332Z,44.60
2022-10-31T12:55:48.853Z,49.40
2022-10-31T12:57:59.412Z,43.42
2022-10-31T13:00:13.096Z,44.03
2022-10-31T13:02:36.714Z,40.15
2022-10-31T13:05:04.724Z,35.60
2022-10-31T13:07:13.275Z,42.83
2022-10-31T13:09:20.732Z,44.17
2022-10-31T13:11:44.655Z,43.42
2022-10-31T13:13:53.566Z,47.42
2022-10-31T13:16:02.507Z,48.60
2022-10-31T13:18:14.000Z,52.53
2022-10-31T13:20:42.033Z,47.63
2022-10-31T13:22:47.954Z,51.03
2022-10-31T13:25:00.484Z,46.03
2022-10-31T13:27:12.321Z,50.15
2022-10-31T13:29:32.692Z,48.55
2022-10-31T13:31:34.995Z,54.30
2022-10-31T13:33:44.299Z,53.17
2022-10-31T13:35:52.135Z,50.42
2022-10-31T13:38:01.572Z,48.58
2022-10-31T13:40:06.933Z,50.42
2022-10-31T13:42:24.479Z,54.80
2022-10-31T13:44:28.903Z,50.70
2022-10-31T13:46:34.118Z,56.92
2022-10-31T13:48:40.261Z,53.95
2022-10-31T13:50:44.270Z,50.17
2022-10-31T13:52:46.615Z,57.08
2022-10-31T13:54:56.880Z,59.53
2022-10-31T13:56:59.261Z,56.33
2022-10-31T13:59:04.190Z,52.47
2022-10-31T14:01:12.242Z,52.90
2022-10-31T14:03:36.263Z,52.65
2022-10-31T14:05:43.470Z,55.10
2022-10-31T14:07:47.586Z,56.03
2022-10-31T14:09:52.314Z,55.72
2022-10-31T14:11:56.185Z,51.13
2022-10-31T14:13:59.898Z,54.05
2022-10-31T14:16:06.116Z,58.22
2022-10-31T14:18:39.158Z,55.50
2022-10-31T14:20:42.957Z,56.72
2022-10-31T14:22:45.000Z,52.92
2022-10-31T14:24:47.347Z,59.17
2022-10-31T14:27:01.884Z,54.90
2022-10-31T14:29:16.065Z,62.03
2022-10-31T14:31:39.698Z,58.17
2022-10-31T14:33:43.589Z,62.45
2022-10-31T14:35:54.916Z,63.17
2022-10-31T14:38:16.179Z,67.70
2022-10-31T14:40:32.669Z,64.00
2022-10-31T14:43:05.540Z,66.25
2022-10-31T14:45:37.226Z,71.28
2022-10-31T14:47:48.119Z,71.57
2022-10-31T14:49:58.925Z,69.30
2022-10-31T14:52:02.380Z,73.25
2022-10-31T14:54:07.338Z,71.05
2022-10-31T14:56:12.445Z,73.43
2022-10-31T14:58:21.501Z,68.90
2022-10-31T15:00:25.732Z,64.50
2022-10-31T15:02:53.621Z,62.67
2022-10-31T15:04:56.759Z,64.65
2022-10-31T15:07:13.635Z,59.15
2022-10-31T15:09:33.299Z,65.15
2022-10-31T15:11:39.140Z,61.15
2022-10-31T15:13:50.096Z,72.35
2022-10-31T15:15:55.703Z,65.15
2022-10-31T15:18:04.713Z,76.28
2022-10-31T15:20:07.387Z,77.72
2022-10-31T15:22:15.429Z,74.55
2022-10-31T15:24:19.596Z,78.40
2022-10-31T15:26:24.589Z,87.88
2022-10-31T15:28:27.224Z,87.32
2022-10-31T15:32:31.878Z,95.32
2022-10-31T15:34:33.669Z,87.68
2022-10-31T15:36:38.633Z,93.07
2022-10-31T15:38:40.623Z,99.07
2022-10-31T15:40:56.564Z,98.72
2022-10-31T15:43:02.974Z,96.90
2022-10-31T15:45:10.530Z,101.90
2022-10-31T15:47:21.684Z,98.35
2022-10-31T15:49:35.509Z,99.80
2022-10-31T15:51:38.991Z,98.15
2022-10-31T15:53:53.614Z,101.88
2022-10-31T15:55:59.215Z,101.65
2022-10-31T15:58:16.294Z,104.50
2022-10-31T16:00:41.729Z,104.68
2022-10-31T16:02:43.847Z,102.53
2022-10-31T16:04:55.951Z,115.93
2022-10-31T16:07:23.471Z,114.53
2022-10-31T16:09:26.478Z,114.20
2022-10-31T16:11:38.102Z,103.60
2022-10-31T16:13:58.042Z,111.10
2022-10-31T16:16:32.964Z,114.65
2022-10-31T16:18:27.138Z,107.20
2022-10-31T16:20:33.001Z,119.03
2022-10-31T16:22:39.817Z,115.90
2022-10-31T16:24:49.258Z,112.70
2022-10-31T16:26:53.978Z,110.75
2022-10-31T16:29:05.711Z,116.15
2022-10-31T16:31:15.297Z,117.50
2022-10-31T16:33:31.926Z,115.95
2022-10-31T16:35:37.710Z,110.65
2022-10-31T16:37:42.978Z,111.07
2022-10-31T16:39:44.891Z,114.93
2022-10-31T16:41:54.250Z,114.72
2022-10-31T16:43:56.186Z,107.13
2022-10-31T16:45:58.050Z,107.90
2022-10-31T16:48:10.616Z,102.28
2022-10-31T16:50:15.274Z,117.63
2022-10-31T16:52:18.447Z,120.25
2022-10-31T16:54:21.129Z,111.93
2022-10-31T16:56:31.065Z,111.75
2022-10-31T16:58:34.716Z,108.18
2022-10-31T17:00:38.334Z,112.25
2022-10-31T17:02:40.647Z,108.53
2022-10-31T17:04:43.874Z,109.05
2022-10-31T17:06:48.734Z,105.20
2022-10-31T17:08:50.599Z,106.50
2022-10-31T17:10:54.748Z,105.78
2022-10-31T17:12:58.231Z,100.13
2022-10-31T17:15:00.674Z,108.32
2022-10-31T17:17:02.527Z,110.25
2022-10-31T17:19:05.052Z,117.95
2022-10-31T17:21:07.265Z,117.82
2022-10-31T17:23:11.386Z,127.45
2022-10-31T17:25:17.469Z,109.03
2022-10-31T17:27:19.537Z,120.03
2022-10-31T17:29:21.820Z,124.50
2022-10-31T17:31:29.608Z,123.38
2022-10-31T17:33:31.718Z,126.60
2022-10-31T17:35:33.631Z,132.30
2022-10-31T17:37:36.480Z,121.75
2022-10-31T17:39:39.962Z,134.35
2022-10-31T17:41:41.729Z,122.28
2022-10-31T17:43:47.435Z,132.13
2022-10-31T17:45:49.502Z,127.03
2022-10-31T17:47:53.151Z,127.20
2022-10-31T17:49:55.389Z,125.38
2022-10-31T17:51:57.241Z,128.63
2022-10-31T17:53:59.076Z,121.70
2022-10-31T17:56:02.366Z,116.20
2022-10-31T18:00:09.629Z,111.63
2022-10-31T18:02:12.608Z,106.93
2022-10-31T18:04:15.104Z,113.07
2022-10-31T18:06:17.531Z,115.05
2022-10-31T18:08:19.786Z,116.65
2022-10-31T18:10:21.755Z,114.97
2022-10-31T18:12:24.156Z,112.05
2022-10-31T18:14:26.540Z,109.32
2022-10-31T18:16:29.419Z,102.78
2022-10-31T18:18:31.325Z,88.32
2022-10-31T18:20:33.719Z,85.80
2022-10-31T18:22:35.670Z,94.47
2022-10-31T18:24:39.260Z,87.93
2022-10-31T18:26:41.490Z,87.20
2022-10-31T18:30:46.480Z,95.90
2022-10-31T18:32:53.170Z,90.55
2022-10-31T18:34:55.127Z,93.28
2022-10-31T18:36:57.007Z,91.28
2022-10-31T18:38:59.326Z,90.97
2022-10-31T18:41:01.346Z,90.37
2022-10-31T18:43:11.679Z,90.10
2022-10-31T18:45:32.616Z,89.45
2022-10-31T18:47:37.499Z,84.88
2022-10-31T18:49:39.634Z,97.13
2022-10-31T18:51:41.821Z,91.90
2022-10-31T18:53:53.317Z,84.90
2022-10-31T18:55:55.141Z,82.10
2022-10-31T18:57:57.327Z,80.30
2022-10-31T18:59:59.188Z,77.38
2022-10-31T19:02:01.380Z,84.67
2022-10-31T19:04:03.931Z,91.57
2022-10-31T19:06:07.682Z,85.77
2022-10-31T19:08:09.751Z,87.55
2022-10-31T19:10:12.027Z,93.47
2022-10-31T19:12:13.981Z,88.63
2022-10-31T19:14:15.931Z,90.60
2022-10-31T19:16:18.453Z,85.05
2022-10-31T19:18:20.723Z,90.60
2022-10-31T19:20:24.403Z,95.07
2022-10-31T19:22:26.638Z,92.85
2022-10-31T19:24:29.143Z,97.03
2022-10-31T19:26:33.237Z,100.03
2022-10-31T19:28:37.801Z,89.15
2022-10-31T19:30:39.661Z,90.47
2022-10-31T19:32:41.614Z,91.30
2022-10-31T19:34:45.007Z,90.45
2022-10-31T19:36:47.044Z,92.47
2022-10-31T19:38:51.376Z,100.82
2022-10-31T19:41:00.104Z,87.18
2022-10-31T19:43:01.930Z,92.60
2022-10-31T19:45:05.004Z,99.05
2022-10-31T19:47:07.228Z,92.45
2022-10-31T19:49:09.953Z,101.68
2022-10-31T19:51:14.151Z,92.00
2022-10-31T19:53:16.921Z,87.97
2022-10-31T19:55:18.699Z,82.03
2022-10-31T19:57:35.819Z,91.97
2022-10-31T19:59:42.608Z,95.90
2022-10-31T20:01:44.497Z,91.85
2022-10-31T20:03:47.243Z,89.18
2022-10-31T20:07:52.153Z,100.30
2022-10-31T20:09:54.070Z,87.15
2022-10-31T20:11:57.072Z,95.50
2022-10-31T20:13:59.978Z,99.68
2022-10-31T20:16:10.362Z,97.22
2022-10-31T20:18:12.488Z,90.55
2022-10-31T20:20:14.452Z,89.13
2022-10-31T20:22:16.259Z,92.65
2022-10-31T20:24:18.451Z,82.67
2022-10-31T20:26:20.580Z,90.60
2022-10-31T20:30:26.448Z,89.47
2022-10-31T20:32:28.260Z,89.28
2022-10-31T20:34:30.254Z,91.43
2022-10-31T20:36:32.462Z,92.10
2022-10-31T20:38:37.940Z,87.45
2022-10-31T20:40:39.894Z,84.32
2022-10-31T20:42:42.111Z,79.93
2022-10-31T20:44:44.417Z,89.18
2022-10-31T20:46:46.282Z,81.97
2022-10-31T20:48:50.071Z,86.73
2022-10-31T20:50:59.415Z,90.55
2022-10-31T20:53:01.736Z,83.68
2022-10-31T20:57:07.610Z,84.75
2022-10-31T20:59:09.586Z,86.65
2022-10-31T21:01:23.317Z,90.15
2022-10-31T21:03:26.443Z,92.03
2022-10-31T21:05:28.343Z,90.65
2022-10-31T21:07:34.909Z,80.90
2022-10-31T21:09:36.898Z,80.90
2022-10-31T21:11:38.763Z,90.25
2022-10-31T21:13:42.871Z,92.88
2022-10-31T21:15:45.034Z,85.50
2022-10-31T21:17:49.335Z,98.30
2022-10-31T21:19:51.435Z,105.40
2022-10-31T21:21:54.818Z,99.63
2022-10-31T21:23:59.009Z,103.80
2022-10-31T21:26:09.390Z,104.63
2022-10-31T21:28:12.196Z,100.00
2022-10-31T21:30:14.071Z,89.72
2022-10-31T21:32:16.230Z,89.00
2022-10-31T21:34:18.152Z,98.65
2022-10-31T21:36:20.305Z,95.57
2022-10-31T21:38:22.459Z,90.60
2022-10-31T21:40:27.790Z,88.88
2022-10-31T21:42:29.798Z,85.68
2022-10-31T21:44:33.788Z,84.07
2022-10-31T21:46:37.550Z,88.07
2022-10-31T21:48:43.482Z,94.03
2022-10-31T21:50:45.620Z,92.03
2022-10-31T21:52:47.426Z,94.85
2022-10-31T21:54:49.298Z,94.68
2022-10-31T21:56:51.820Z,102.15
2022-10-31T21:58:54.382Z,102.22
2022-10-31T22:01:01.685Z,97.78
2022-10-31T22:03:03.997Z,90.25
2022-10-31T22:05:06.083Z,84.35
2022-10-31T22:07:08.195Z,90.37
2022-10-31T22:09:13.627Z,101.70
2022-10-31T22:11:17.548Z,91.18
2022-10-31T22:13:19.425Z,84.65
2022-10-31T22:15:23.716Z,95.78
2022-10-31T22:17:25.558Z,94.78
2022-10-31T22:19:27.414Z,89.38
2022-10-31T22:21:29.611Z,90.43
2022-10-31T22:23:31.762Z,94.90
2022-10-31T22:25:37.480Z,87.60
2022-10-31T22:27:39.636Z,87.15
2022-10-31T22:29:41.614Z,84.97
2022-10-31T22:31:46.106Z,87.50
2022-10-31T22:33:48.890Z,81.38
2022-10-31T22:35:50.729Z,91.03
2022-10-31T22:37:52.682Z,86.20
2022-10-31T22:39:54.833Z,96.07
2022-10-31T22:41:56.621Z,82.90
2022-10-31T22:43:59.184Z,91.43
2022-10-31T22:46:05.363Z,91.63
2022-10-31T22:48:07.223Z,85.55
2022-10-31T22:50:09.238Z,93.72
2022-10-31T22:52:11.389Z,98.20
2022-10-31T22:54:16.542Z,92.20
2022-10-31T22:56:21.147Z,91.88
2022-10-31T22:58:23.258Z,93.72
2022-10-31T23:00:25.817Z,91.40
2022-10-31T23:02:28.456Z,82.97
2022-10-31T23:06:33.228Z,93.68
2022-10-31T23:08:37.748Z,106.50
2022-10-31T23:10:42.225Z,95.13
2022-10-31T23:13:02.602Z,99.47
2022-10-31T23:15:05.060Z,85.85
2022-10-31T23:17:07.205Z,107.53
2022-10-31T23:19:10.161Z,86.80
2022-10-31T23:23:36.574Z,83.57
2022-10-31T23:25:57.214Z,91.50
2022-10-31T23:27:58.994Z,85.22
2022-10-31T23:30:01.516Z,81.00
2022-10-31T23:32:05.044Z,92.28
2022-10-31T23:34:06.867Z,88.80
2022-10-31T23:36:09.115Z,90.97
2022-10-31T23:38:11.013Z,79.50
2022-10-31T23:40:12.787Z,90.40
2022-10-31T23:42:15.730Z,86.57
2022-10-31T23:44:17.931Z,80.20
2022-10-31T23:46:19.900Z,76.13
2022-10-31T23:48:22.213Z,80.72
2022-10-31T23:50:24.035Z,109.97
2022-10-31T23:52:25.799Z,86.63
2022-10-31T23:54:28.322Z,83.20
2022-10-31T23:56:30.323Z,103.80
2022-10-31T23:58:32.111Z,84.30
